Time;durP1;ratioP1;P1;durP2;ratioP2;P2;SDS_P1;SDS_P2;PMS_P1;PMS_P2;Temp;Humidity;BMP_temperature;BMP_pressure;BME280_temperature;BME280_humidity;BME280_pressure;Samples;Min_cycle;Max_cycle;Signal;HPM_P1;HPM_P2
2022/06/15 00:00:31;;;;;;;;;;;17.60;99.90;;;;;;4599417;19;19922;-34
2022/06/15 00:02:08;;;;;;;;;;;17.60;99.90;;;;;;4598610;19;19914;-36
2022/06/15 00:03:40;;;;;;;;;;;17.60;99.90;;;;;;4598893;19;19915;-33
2022/06/15 00:05:11;;;;;;;;;;;17.60;99.90;;;;;;4599303;19;19917;-36
2022/06/15 00:06:42;;;;;;;;;;;17.60;99.90;;;;;;4598908;19;19910;-38
2022/06/15 00:08:13;;;;;;;;;;;17.50;99.90;;;;;;4598544;19;19935;-36
2022/06/15 00:09:44;;;;;;;;;;;17.50;99.90;;;;;;4598173;19;19922;-33
2022/06/15 00:11:18;;;;;;;;;;;17.60;99.90;;;;;;4598704;19;19922;-34
2022/06/15 00:12:49;;;;;;;;;;;17.50;99.90;;;;;;4597325;19;20393;-37
2022/06/15 00:14:22;;;;;;;;;;;17.60;99.90;;;;;;4597444;19;19918;-36
2022/06/15 00:15:53;;;;;;;;;;;17.50;99.90;;;;;;4598414;19;19918;-33
2022/06/15 00:17:24;;;;;;;;;;;17.50;99.90;;;;;;4598425;19;19923;-39
2022/06/15 00:18:55;;;;;;;;;;;17.60;99.90;;;;;;4598174;19;19919;-35
2022/06/15 00:20:26;;;;;;;;;;;17.60;99.90;;;;;;4598454;19;19979;-40
2022/06/15 00:21:57;;;;;;;;;;;17.50;99.90;;;;;;4598373;19;19919;-32
2022/06/15 00:23:28;;;;;;;;;;;17.50;99.90;;;;;;4598747;19;20325;-37
2022/06/15 00:24:59;;;;;;;;;;;17.50;99.90;;;;;;4597938;19;19918;-38
2022/06/15 00:26:30;;;;;;;;;;;17.50;99.90;;;;;;4598151;19;20066;-34
2022/06/15 00:28:01;;;;;;;;;;;17.50;99.90;;;;;;4598475;19;19995;-32
2022/06/15 00:29:37;;;;;;;;;;;17.50;99.90;;;;;;4598329;19;19932;-36
2022/06/15 00:31:08;;;;;;;;;;;17.50;99.90;;;;;;4597875;19;20322;-32
2022/06/15 00:32:39;;;;;;;;;;;17.50;99.90;;;;;;4598026;19;19919;-36
2022/06/15 00:34:10;;;;;;;;;;;17.50;99.90;;;;;;4597645;19;19974;-35
2022/06/15 00:35:41;;;;;;;;;;;17.50;99.90;;;;;;4597645;19;19921;-38
2022/06/15 00:37:12;;;;;;;;;;;17.50;99.90;;;;;;4598047;19;19931;-36
2022/06/15 00:38:44;;;;;;;;;;;17.50;99.90;;;;;;4597994;19;19914;-33
2022/06/15 00:40:15;;;;;;;;;;;17.50;99.90;;;;;;4598222;19;19917;-35
2022/06/15 00:41:45;;;;;;;;;;;17.50;99.90;;;;;;4601681;19;20278;-35
2022/06/15 00:43:35;;;;;;;;;;;17.50;99.90;;;;;;4602460;19;19918;-34
2022/06/15 00:45:06;;;;;;;;;;;17.50;99.90;;;;;;4602094;19;19937;-33
2022/06/15 00:46:38;;;;;;;;;;;17.50;99.90;;;;;;4602012;19;19929;-32
2022/06/15 00:48:09;;;;;;;;;;;17.50;99.90;;;;;;4600609;19;19914;-40
2022/06/15 00:49:41;;;;;;;;;;;17.50;99.90;;;;;;4599651;19;19921;-32
2022/06/15 00:51:13;;;;;;;;;;;17.50;99.90;;;;;;4601825;19;19919;-34
2022/06/15 00:52:47;;;;;;;;;;;17.50;99.90;;;;;;4602776;19;19914;-38
2022/06/15 00:54:18;;;;;;;;;;;17.50;99.90;;;;;;4601300;19;19989;-35
2022/06/15 00:55:50;;;;;;;;;;;17.50;99.90;;;;;;4600542;19;19910;-34
2022/06/15 00:57:21;;;;;;;;;;;17.50;99.90;;;;;;4601408;19;20333;-39
2022/06/15 00:58:53;;;;;;;;;;;17.50;99.90;;;;;;4601610;19;19929;-33
2022/06/15 01:00:24;;;;;;;;;;;17.50;99.90;;;;;;4601984;19;20376;-41
2022/06/15 01:01:55;;;;;;;;;;;17.50;99.90;;;;;;4601836;19;19923;-32
2022/06/15 01:03:26;;;;;;;;;;;17.50;99.90;;;;;;4601865;19;19915;-39
2022/06/15 01:05:01;;;;;;;;;;;17.50;99.90;;;;;;4601407;19;19914;-36
2022/06/15 01:06:41;;;;;;;;;;;17.50;99.90;;;;;;4601807;19;19926;-36
2022/06/15 01:08:17;;;;;;;;;;;17.50;99.90;;;;;;4602018;19;19919;-40
2022/06/15 01:09:54;;;;;;;;;;;17.50;99.90;;;;;;4600872;19;19923;-35
2022/06/15 01:11:25;;;;;;;;;;;17.50;99.90;;;;;;4600489;19;20301;-35
2022/06/15 01:13:02;;;;;;;;;;;17.50;99.90;;;;;;4601207;19;20118;-36
2022/06/15 01:14:42;;;;;;;;;;;17.50;99.90;;;;;;4599248;19;20250;-37
2022/06/15 01:16:33;;;;;;;;;;;17.50;99.90;;;;;;4601582;19;19926;-35
2022/06/15 01:18:07;;;;;;;;;;;17.50;99.90;;;;;;4601579;19;19922;-33
2022/06/15 01:19:56;;;;;;;;;;;17.50;99.90;;;;;;4601638;19;20343;-36
2022/06/15 01:21:44;;;;;;;;;;;17.50;99.90;;;;;;4601266;19;19929;-35
2022/06/15 01:23:14;;;;;;;;;;;17.50;99.90;;;;;;4600138;19;20372;-37
2022/06/15 01:25:04;;;;;;;;;;;17.50;99.90;;;;;;4601011;19;19911;-37
2022/06/15 01:26:51;;;;;;;;;;;17.50;99.90;;;;;;4601449;19;19918;-34
2022/06/15 01:28:38;;;;;;;;;;;17.50;99.90;;;;;;4601859;19;19934;-34
2022/06/15 01:30:10;;;;;;;;;;;17.50;99.90;;;;;;4599181;19;19930;-37
2022/06/15 01:31:47;;;;;;;;;;;17.50;99.90;;;;;;4598958;19;19925;-34
2022/06/15 01:33:18;;;;;;;;;;;17.50;99.90;;;;;;4599148;19;19918;-38
2022/06/15 01:34:57;;;;;;;;;;;17.50;99.90;;;;;;4597915;19;19925;-40
2022/06/15 01:36:46;;;;;;;;;;;17.50;99.90;;;;;;4599408;19;20295;-34
2022/06/15 01:38:25;;;;;;;;;;;17.50;99.90;;;;;;4599011;19;19911;-33
2022/06/15 01:40:02;;;;;;;;;;;17.50;99.90;;;;;;4599000;19;20330;-37
2022/06/15 01:41:38;;;;;;;;;;;17.50;99.90;;;;;;4599235;19;19918;-35
2022/06/15 01:43:10;;;;;;;;;;;17.50;99.90;;;;;;4599226;19;19928;-38
2022/06/15 01:44:42;;;;;;;;;;;17.50;99.90;;;;;;4598844;19;19919;-32
2022/06/15 01:46:13;;;;;;;;;;;17.50;99.90;;;;;;4598582;19;19918;-35
2022/06/15 01:47:44;;;;;;;;;;;17.50;99.90;;;;;;4599149;19;19931;-34
2022/06/15 01:49:19;;;;;;;;;;;17.60;99.90;;;;;;4598021;19;19934;-32
2022/06/15 01:51:02;;;;;;;;;;;17.60;99.90;;;;;;4598697;19;19935;-33
2022/06/15 01:52:33;;;;;;;;;;;17.60;99.90;;;;;;4598480;19;20363;-36
2022/06/15 01:54:06;;;;;;;;;;;17.60;99.90;;;;;;4598106;19;19944;-43
2022/06/15 01:55:46;;;;;;;;;;;17.60;99.90;;;;;;4598742;19;19933;-39
2022/06/15 01:57:18;;;;;;;;;;;17.50;99.90;;;;;;4598766;19;20385;-40
2022/06/15 01:58:51;;;;;;;;;;;17.50;99.90;;;;;;4598612;19;19951;-40
2022/06/15 02:00:22;;;;;;;;;;;17.60;99.90;;;;;;4598622;19;19918;-37
2022/06/15 02:02:12;;;;;;;;;;;17.60;99.90;;;;;;4599875;19;19933;-31
2022/06/15 02:03:48;;;;;;;;;;;17.60;99.90;;;;;;4599674;19;20354;-37
2022/06/15 02:05:25;;;;;;;;;;;17.60;99.90;;;;;;4599412;19;19919;-33
2022/06/15 02:06:59;;;;;;;;;;;17.60;99.90;;;;;;4601020;19;19919;-35
2022/06/15 02:08:38;;;;;;;;;;;17.60;99.90;;;;;;4599403;19;19915;-42
2022/06/15 02:10:17;;;;;;;;;;;17.60;99.90;;;;;;4599427;19;20300;-39
2022/06/15 02:11:48;;;;;;;;;;;17.60;99.90;;;;;;4599594;19;19914;-32
2022/06/15 02:13:40;;;;;;;;;;;17.60;99.90;;;;;;4600122;19;20322;-39
2022/06/15 02:15:11;;;;;;;;;;;17.60;99.90;;;;;;4599293;19;19918;-41
2022/06/15 02:16:43;;;;;;;;;;;17.60;99.90;;;;;;4599928;19;20363;-38
2022/06/15 02:18:15;;;;;;;;;;;17.60;99.90;;;;;;4600534;19;19919;-34
2022/06/15 02:19:46;;;;;;;;;;;17.60;99.90;;;;;;4599187;19;19938;-32
2022/06/15 02:21:19;;;;;;;;;;;17.60;99.90;;;;;;4599421;19;19919;-36
2022/06/15 02:22:50;;;;;;;;;;;17.60;99.90;;;;;;4600027;19;19924;-32
2022/06/15 02:24:21;;;;;;;;;;;17.60;99.90;;;;;;4599686;19;19918;-38
2022/06/15 02:25:52;;;;;;;;;;;17.60;99.90;;;;;;4599911;19;19925;-38
2022/06/15 02:27:26;;;;;;;;;;;17.60;99.90;;;;;;4599221;19;19927;-34
2022/06/15 02:28:58;;;;;;;;;;;17.60;99.90;;;;;;4599568;19;20340;-38
2022/06/15 02:30:29;;;;;;;;;;;17.60;99.90;;;;;;4599214;19;19935;-36
2022/06/15 02:32:00;;;;;;;;;;;17.60;99.90;;;;;;4599070;19;19933;-35
2022/06/15 02:33:32;;;;;;;;;;;17.60;99.90;;;;;;4599233;19;19977;-36
2022/06/15 02:35:03;;;;;;;;;;;17.60;99.90;;;;;;4599213;19;20306;-39
2022/06/15 02:36:34;;;;;;;;;;;17.60;99.90;;;;;;4599993;19;19936;-40
2022/06/15 02:38:05;;;;;;;;;;;17.60;99.90;;;;;;4600067;19;19918;-34
2022/06/15 02:39:36;;;;;;;;;;;17.60;99.90;;;;;;4600759;19;19915;-33
2022/06/15 02:41:08;;;;;;;;;;;17.60;99.90;;;;;;4600763;19;19933;-38
2022/06/15 02:42:40;;;;;;;;;;;17.60;99.90;;;;;;4598787;19;19918;-32
2022/06/15 02:44:12;;;;;;;;;;;17.60;99.90;;;;;;4599836;19;20235;-35
2022/06/15 02:45:43;;;;;;;;;;;17.60;99.90;;;;;;4600352;19;19915;-36
2022/06/15 02:47:14;;;;;;;;;;;17.60;99.90;;;;;;4599415;19;20252;-40
2022/06/15 02:48:45;;;;;;;;;;;17.60;99.90;;;;;;4598665;19;19954;-35
2022/06/15 02:50:18;;;;;;;;;;;17.60;99.90;;;;;;4599092;19;19918;-32
2022/06/15 02:51:50;;;;;;;;;;;17.60;99.90;;;;;;4599659;19;20284;-37
2022/06/15 02:53:22;;;;;;;;;;;17.60;99.90;;;;;;4599298;19;20260;-31
2022/06/15 02:54:53;;;;;;;;;;;17.60;99.90;;;;;;4597182;19;19918;-35
2022/06/15 02:56:24;;;;;;;;;;;17.60;99.90;;;;;;4599394;19;20250;-35
2022/06/15 02:58:01;;;;;;;;;;;17.60;99.90;;;;;;4598922;19;20322;-41
2022/06/15 02:59:32;;;;;;;;;;;17.60;99.90;;;;;;4598785;19;19922;-33
2022/06/15 03:01:03;;;;;;;;;;;17.60;99.90;;;;;;4599332;19;19927;-35
2022/06/15 03:02:34;;;;;;;;;;;17.60;99.90;;;;;;4600210;19;19918;-36
2022/06/15 03:04:05;;;;;;;;;;;17.60;99.90;;;;;;4598738;19;19915;-38
2022/06/15 03:05:36;;;;;;;;;;;17.60;99.90;;;;;;4599634;19;19914;-35
2022/06/15 03:07:07;;;;;;;;;;;17.60;99.90;;;;;;4599639;19;19915;-34
2022/06/15 03:08:38;;;;;;;;;;;17.60;99.90;;;;;;4599786;19;20329;-36
2022/06/15 03:10:10;;;;;;;;;;;17.60;99.90;;;;;;4598980;19;19915;-36
2022/06/15 03:11:41;;;;;;;;;;;17.60;99.90;;;;;;4599025;19;19911;-35
2022/06/15 03:13:12;;;;;;;;;;;17.60;99.90;;;;;;4599969;19;19922;-37
2022/06/15 03:14:43;;;;;;;;;;;17.60;99.90;;;;;;4599072;19;19918;-36
2022/06/15 03:16:14;;;;;;;;;;;17.60;99.90;;;;;;4599324;19;19974;-41
2022/06/15 03:17:45;;;;;;;;;;;17.60;99.90;;;;;;4599584;19;19922;-32
2022/06/15 03:19:16;;;;;;;;;;;17.60;99.90;;;;;;4599474;19;19911;-37
2022/06/15 03:20:46;;;;;;;;;;;17.60;99.90;;;;;;4599841;19;19932;-33
2022/06/15 03:22:18;;;;;;;;;;;17.60;99.90;;;;;;4599337;19;19923;-34
2022/06/15 03:23:49;;;;;;;;;;;17.60;99.90;;;;;;4599474;19;20377;-32
2022/06/15 03:25:20;;;;;;;;;;;17.60;99.90;;;;;;4599425;19;19918;-34
2022/06/15 03:26:51;;;;;;;;;;;17.60;99.90;;;;;;4600215;19;19910;-35
2022/06/15 03:28:22;;;;;;;;;;;17.60;99.90;;;;;;4598122;19;19923;-35
2022/06/15 03:29:53;;;;;;;;;;;17.60;99.90;;;;;;4598815;19;19925;-33
2022/06/15 03:31:27;;;;;;;;;;;17.60;99.90;;;;;;4599717;19;19935;-37
2022/06/15 03:32:58;;;;;;;;;;;17.60;99.90;;;;;;4599527;19;19926;-33
2022/06/15 03:34:29;;;;;;;;;;;17.60;99.90;;;;;;4598445;19;19978;-36
2022/06/15 03:36:00;;;;;;;;;;;17.60;99.90;;;;;;4599248;19;19922;-34
2022/06/15 03:37:31;;;;;;;;;;;17.60;99.90;;;;;;4599786;19;19919;-34
2022/06/15 03:39:02;;;;;;;;;;;17.60;99.90;;;;;;4599235;19;19919;-34
2022/06/15 03:40:33;;;;;;;;;;;17.60;99.90;;;;;;4599182;19;19923;-33
2022/06/15 03:42:13;;;;;;;;;;;17.60;99.90;;;;;;4599507;19;20336;-36
2022/06/15 03:43:45;;;;;;;;;;;17.60;99.90;;;;;;4599765;19;19967;-35
2022/06/15 03:45:16;;;;;;;;;;;17.60;99.90;;;;;;4598872;19;19919;-33
2022/06/15 03:46:48;;;;;;;;;;;17.60;99.90;;;;;;4598905;19;19938;-36
2022/06/15 03:48:19;;;;;;;;;;;17.60;99.90;;;;;;4599648;19;19914;-39
2022/06/15 03:49:50;;;;;;;;;;;17.60;99.90;;;;;;4598359;19;20348;-36
2022/06/15 03:51:21;;;;;;;;;;;17.60;99.90;;;;;;4598760;19;20234;-38
2022/06/15 03:52:52;;;;;;;;;;;17.60;99.90;;;;;;4598868;19;19952;-37
2022/06/15 03:54:23;;;;;;;;;;;17.60;99.90;;;;;;4597939;19;19919;-34
2022/06/15 03:55:54;;;;;;;;;;;17.60;99.90;;;;;;4598650;19;19922;-34
2022/06/15 03:57:25;;;;;;;;;;;17.60;99.90;;;;;;4596199;19;20330;-40
2022/06/15 03:58:56;;;;;;;;;;;17.60;99.90;;;;;;4597438;19;19922;-36
2022/06/15 04:00:28;;;;;;;;;;;17.60;99.90;;;;;;4597592;19;19918;-33
2022/06/15 04:01:59;;;;;;;;;;;17.60;99.90;;;;;;4598189;19;19932;-33
2022/06/15 04:03:29;;;;;;;;;;;17.60;99.90;;;;;;4598880;19;20284;-35
2022/06/15 04:05:01;;;;;;;;;;;17.60;99.90;;;;;;4597759;19;19919;-36
2022/06/15 04:06:32;;;;;;;;;;;17.60;99.90;;;;;;4598632;19;19914;-33
2022/06/15 04:09:53;;;;;;;;;;;17.60;99.90;;;;;;4598495;19;19934;-33
2022/06/15 04:13:15;;;;;;;;;;;17.60;99.90;;;;;;4597144;19;19921;-34
2022/06/15 04:14:45;;;;;;;;;;;17.60;99.90;;;;;;4597573;19;19910;-35
2022/06/15 04:16:16;;;;;;;;;;;17.60;99.90;;;;;;4600644;19;20370;-34
2022/06/15 04:17:48;;;;;;;;;;;17.60;99.90;;;;;;4601230;19;19927;-34
2022/06/15 04:19:20;;;;;;;;;;;17.60;99.90;;;;;;4602356;19;19925;-34
2022/06/15 04:20:51;;;;;;;;;;;17.60;99.90;;;;;;4602665;19;20341;-36
2022/06/15 04:22:21;;;;;;;;;;;17.70;99.90;;;;;;4602318;19;19914;-36
2022/06/15 04:23:54;;;;;;;;;;;17.70;99.90;;;;;;4603004;19;19946;-40
2022/06/15 04:25:25;;;;;;;;;;;17.60;99.90;;;;;;4603167;19;19922;-34
2022/06/15 04:26:56;;;;;;;;;;;17.70;99.90;;;;;;4602227;19;19911;-39
2022/06/15 04:28:28;;;;;;;;;;;17.70;99.90;;;;;;4602476;19;19974;-40
2022/06/15 04:29:59;;;;;;;;;;;17.70;99.90;;;;;;4602568;19;19978;-37
2022/06/15 04:31:30;;;;;;;;;;;17.70;99.90;;;;;;4602760;19;19970;-35
2022/06/15 04:33:01;;;;;;;;;;;17.70;99.90;;;;;;4602052;19;19930;-32
2022/06/15 04:34:32;;;;;;;;;;;17.70;99.90;;;;;;4601440;19;19923;-33
2022/06/15 04:36:03;;;;;;;;;;;17.70;99.90;;;;;;4602449;19;20287;-33
2022/06/15 04:37:37;;;;;;;;;;;17.80;99.90;;;;;;4602771;19;20289;-32
2022/06/15 04:39:09;;;;;;;;;;;17.80;99.90;;;;;;4600897;19;19982;-34
2022/06/15 04:40:40;;;;;;;;;;;17.70;99.90;;;;;;4600934;19;20333;-33
2022/06/15 04:42:11;;;;;;;;;;;17.80;99.90;;;;;;4601211;19;20360;-36
2022/06/15 04:43:42;;;;;;;;;;;17.80;99.90;;;;;;4601491;19;19919;-37
2022/06/15 04:45:13;;;;;;;;;;;17.80;99.90;;;;;;4602149;19;19914;-33
2022/06/15 04:46:44;;;;;;;;;;;17.80;99.90;;;;;;4600822;19;19918;-42
2022/06/15 04:48:16;;;;;;;;;;;17.80;99.90;;;;;;4601458;19;19970;-35
2022/06/15 04:49:47;;;;;;;;;;;17.80;99.90;;;;;;4600485;19;20254;-36
2022/06/15 04:51:20;;;;;;;;;;;17.80;99.90;;;;;;4602082;19;19919;-38
2022/06/15 04:52:51;;;;;;;;;;;17.80;99.90;;;;;;4602348;19;19931;-37
2022/06/15 04:54:23;;;;;;;;;;;17.80;99.90;;;;;;4600954;19;19943;-32
2022/06/15 04:55:53;;;;;;;;;;;17.80;99.90;;;;;;4601878;19;20384;-35
2022/06/15 04:57:24;;;;;;;;;;;17.80;99.90;;;;;;4602117;19;19966;-38
2022/06/15 04:58:56;;;;;;;;;;;17.90;99.90;;;;;;4600887;19;19933;-38
2022/06/15 05:00:28;;;;;;;;;;;17.90;99.90;;;;;;4599989;19;19924;-32
2022/06/15 05:01:59;;;;;;;;;;;17.90;99.90;;;;;;4599294;19;19918;-37
2022/06/15 05:03:30;;;;;;;;;;;17.90;99.90;;;;;;4598570;19;20335;-42
2022/06/15 05:05:01;;;;;;;;;;;17.90;99.90;;;;;;4599757;19;19914;-36
2022/06/15 05:06:34;;;;;;;;;;;17.90;99.90;;;;;;4599283;19;19986;-35
2022/06/15 05:08:05;;;;;;;;;;;17.90;99.90;;;;;;4599489;19;19921;-35
2022/06/15 05:09:36;;;;;;;;;;;17.90;99.90;;;;;;4599676;19;19929;-36
2022/06/15 05:11:08;;;;;;;;;;;17.90;99.90;;;;;;4599544;19;20329;-35
2022/06/15 05:12:39;;;;;;;;;;;17.90;99.90;;;;;;4599274;19;19986;-36
2022/06/15 05:14:10;;;;;;;;;;;17.90;99.90;;;;;;4599394;19;20321;-35
2022/06/15 05:15:41;;;;;;;;;;;17.90;99.90;;;;;;4599472;19;19922;-33
2022/06/15 05:17:12;;;;;;;;;;;17.90;99.90;;;;;;4599768;19;19931;-33
2022/06/15 05:18:43;;;;;;;;;;;17.90;99.90;;;;;;4599250;19;20260;-40
2022/06/15 05:20:14;;;;;;;;;;;18.00;99.90;;;;;;4599191;19;19919;-32
2022/06/15 05:21:46;;;;;;;;;;;18.00;99.90;;;;;;4599216;19;19914;-35
2022/06/15 05:23:17;;;;;;;;;;;18.00;99.90;;;;;;4599012;19;19915;-32
2022/06/15 05:24:48;;;;;;;;;;;18.00;99.90;;;;;;4599358;19;19937;-36
2022/06/15 05:26:24;;;;;;;;;;;18.00;99.90;;;;;;4598611;19;19915;-34
2022/06/15 05:27:55;;;;;;;;;;;18.00;99.90;;;;;;4599085;19;19914;-34
2022/06/15 05:29:26;;;;;;;;;;;18.00;99.90;;;;;;4599024;19;20337;-37
2022/06/15 05:31:04;;;;;;;;;;;18.10;99.90;;;;;;4601031;19;19978;-36
2022/06/15 05:32:35;;;;;;;;;;;18.20;99.90;;;;;;4601809;19;19914;-39
2022/06/15 05:34:06;;;;;;;;;;;18.20;99.90;;;;;;4601565;19;19926;-36
2022/06/15 05:35:37;;;;;;;;;;;18.20;99.90;;;;;;4601018;19;19910;-36
2022/06/15 05:37:08;;;;;;;;;;;18.20;99.90;;;;;;4601339;19;19918;-37
2022/06/15 05:38:39;;;;;;;;;;;18.20;99.90;;;;;;4601408;19;19948;-35
2022/06/15 05:40:11;;;;;;;;;;;18.20;99.90;;;;;;4601258;19;19959;-33
2022/06/15 05:41:42;;;;;;;;;;;18.20;99.90;;;;;;4601193;19;19993;-31
2022/06/15 05:43:14;;;;;;;;;;;18.20;99.90;;;;;;4600157;19;19918;-32
2022/06/15 05:44:48;;;;;;;;;;;18.20;99.90;;;;;;4600342;19;20268;-32
2022/06/15 05:46:26;;;;;;;;;;;18.20;99.90;;;;;;4599976;19;19918;-35
2022/06/15 05:47:57;;;;;;;;;;;18.30;99.90;;;;;;4599932;19;19911;-34
2022/06/15 05:49:29;;;;;;;;;;;18.40;99.90;;;;;;4599567;19;19922;-32
2022/06/15 05:51:00;;;;;;;;;;;18.40;99.90;;;;;;4599975;19;19914;-34
2022/06/15 05:52:30;;;;;;;;;;;18.40;99.90;;;;;;4599668;19;19922;-35
2022/06/15 05:54:02;;;;;;;;;;;18.40;99.90;;;;;;4598298;19;19929;-34
2022/06/15 05:55:33;;;;;;;;;;;18.40;99.90;;;;;;4599118;19;19932;-32
2022/06/15 05:57:11;;;;;;;;;;;18.50;99.90;;;;;;4599289;19;19918;-34
2022/06/15 05:58:42;;;;;;;;;;;18.50;99.90;;;;;;4594279;19;20253;-33
2022/06/15 06:00:13;;;;;;;;;;;18.60;99.90;;;;;;4591531;19;19963;-35
2022/06/15 06:01:45;;;;;;;;;;;18.60;99.90;;;;;;4592836;19;19927;-34
2022/06/15 06:03:16;;;;;;;;;;;18.60;99.90;;;;;;4593875;19;19930;-33
2022/06/15 06:04:47;;;;;;;;;;;18.60;99.90;;;;;;4592503;19;19946;-35
2022/06/15 06:06:18;;;;;;;5.65;3.20;;;18.60;99.90;;;;;;4591587;19;19922;-30
2022/06/15 06:07:50;;;;;;;6.45;2.78;;;18.70;99.90;;;;;;4591270;19;20081;-36
2022/06/15 06:09:21;;;;;;;6.05;3.15;;;18.70;99.90;;;;;;4591043;19;20010;-40
2022/06/15 06:10:52;;;;;;;4.47;1.88;;;18.70;99.90;;;;;;4590219;19;20341;-37
2022/06/15 06:12:33;;;;;;;5.88;2.60;;;18.70;99.90;;;;;;4590021;19;20018;-33
2022/06/15 06:14:13;;;;;;;;;;;18.80;99.90;;;;;;4589797;19;20029;-38
2022/06/15 06:15:46;;;;;;;;;;;18.80;99.90;;;;;;4591473;19;20257;-32
2022/06/15 06:17:21;;;;;;;;;;;18.80;99.90;;;;;;4592160;19;19911;-35
2022/06/15 06:18:55;;;;;;;;;;;18.90;99.90;;;;;;4591935;19;19918;-36
2022/06/15 06:20:27;;;;;;;;;;;18.90;99.90;;;;;;4592380;19;19926;-37
2022/06/15 06:21:58;;;;;;;;;;;19.20;99.90;;;;;;4592890;19;19923;-34
2022/06/15 06:23:29;;;;;;;;;;;19.30;99.90;;;;;;4590903;19;19935;-40
2022/06/15 06:25:00;;;;;;;4.85;2.10;;;19.50;99.90;;;;;;4590313;19;19926;-35
2022/06/15 06:26:31;;;;;;;4.78;2.05;;;19.30;99.90;;;;;;4590285;19;20014;-30
2022/06/15 06:28:02;;;;;;;5.65;2.10;;;19.30;99.90;;;;;;4592507;19;20014;-42
2022/06/15 06:29:34;;;;;;;7.97;2.65;;;19.40;99.90;;;;;;4591614;19;20006;-35
2022/06/15 06:31:05;;;;;;;6.28;2.40;;;19.30;99.90;;;;;;4592604;19;20496;-31
2022/06/15 06:32:37;;;;;;;8.80;3.45;;;18.90;99.90;;;;;;4592623;19;20074;-35
2022/06/15 06:34:08;;;;;;;7.38;3.20;;;18.40;99.90;;;;;;4591717;19;20014;-34
2022/06/15 06:35:39;;;;;;;8.48;4.07;;;18.20;99.90;;;;;;4591669;19;20018;-32
2022/06/15 06:37:12;;;;;;;8.43;3.13;;;17.90;99.90;;;;;;4590081;19;20018;-40
2022/06/15 06:38:43;;;;;;;7.07;3.20;;;17.70;99.90;;;;;;4587584;19;20053;-32
2022/06/15 06:40:14;;;;;;;10.00;4.35;;;17.60;99.90;;;;;;4589156;19;20028;-33
2022/06/15 06:41:45;;;;;;;8.18;2.70;;;17.50;99.90;;;;;;4588337;19;20010;-39
2022/06/15 06:43:16;;;;;;;8.55;3.28;;;17.50;99.90;;;;;;4589086;19;20015;-35
2022/06/15 06:44:48;;;;;;;12.95;4.18;;;17.40;99.90;;;;;;4589955;19;20036;-39
2022/06/15 06:46:20;;;;;;;6.50;3.60;;;17.40;99.90;;;;;;4592079;19;20360;-39
2022/06/15 06:47:52;;;;;;;6.50;3.35;;;17.40;99.90;;;;;;4592059;19;20014;-37
2022/06/15 06:49:23;;;;;;;8.65;3.45;;;17.40;99.90;;;;;;4590919;19;20025;-35
2022/06/15 06:50:55;;;;;;;6.65;3.00;;;17.40;99.90;;;;;;4591539;19;20025;-35
2022/06/15 06:52:26;;;;;;;8.80;3.67;;;17.40;99.90;;;;;;4590564;19;20049;-41
2022/06/15 06:53:57;;;;;;;8.02;3.83;;;17.30;99.90;;;;;;4589710;19;20014;-39
2022/06/15 06:55:28;;;;;;;6.45;3.25;;;17.30;99.90;;;;;;4589284;19;20007;-35
2022/06/15 06:56:59;;;;;;;7.35;3.53;;;17.30;99.90;;;;;;4588080;19;20018;-31
2022/06/15 06:58:31;;;;;;;6.82;3.22;;;17.30;99.90;;;;;;4586812;19;20078;-39
2022/06/15 07:00:02;;;;;;;6.78;3.17;;;17.30;99.90;;;;;;4589348;19;20006;-33
2022/06/15 07:01:37;;;;;;;6.80;3.58;;;17.30;99.90;;;;;;4592376;19;20337;-39
2022/06/15 07:03:08;;;;;;;;;;;17.30;99.90;;;;;;4591360;19;20078;-36
2022/06/15 07:04:40;;;;;;;8.40;2.80;;;17.30;99.90;;;;;;4590888;19;20041;-32
2022/06/15 07:06:11;;;;;;;5.88;3.92;;;17.30;99.90;;;;;;4590459;19;19914;-31
2022/06/15 07:07:42;;;;;;;8.20;3.47;;;17.30;99.90;;;;;;4590840;19;20030;-38
2022/06/15 07:09:14;;;;;;;;;;;17.30;99.90;;;;;;4589379;19;19919;-40
2022/06/15 07:10:47;;;;;;;7.93;3.67;;;17.30;99.90;;;;;;4588276;19;20257;-30
2022/06/15 07:12:21;;;;;;;7.63;3.70;;;17.20;99.90;;;;;;4589331;19;20062;-39
2022/06/15 07:13:52;;;;;;;6.30;2.60;;;17.20;99.90;;;;;;4587826;19;20022;-36
2022/06/15 07:15:23;;;;;;;6.35;3.10;;;17.20;99.90;;;;;;4587578;19;20025;-36
2022/06/15 07:16:54;;;;;;;6.65;3.10;;;17.20;99.90;;;;;;4591341;19;20014;-38
2022/06/15 07:18:25;;;;;;;6.90;3.15;;;17.20;99.90;;;;;;4591159;19;20567;-33
2022/06/15 07:19:56;;;;;;;6.38;3.03;;;17.20;99.90;;;;;;4590822;19;20029;-38
2022/06/15 07:21:28;;;;;;;6.57;2.90;;;17.30;99.90;;;;;;4590294;19;20010;-34
2022/06/15 07:22:59;;;;;;;6.37;3.53;;;17.30;99.90;;;;;;4590303;19;20016;-36
2022/06/15 07:24:30;;;;;;;10.18;3.13;;;17.20;99.90;;;;;;4590537;19;20014;-37
2022/06/15 07:26:06;;;;;;;7.90;3.22;;;17.20;99.90;;;;;;4590140;19;20018;-34
2022/06/15 07:27:38;;;;;;;6.35;3.15;;;17.20;99.90;;;;;;4589796;19;20502;-32
2022/06/15 07:29:10;;;;;;;7.40;3.17;;;17.20;99.90;;;;;;4589600;19;20078;-37
2022/06/15 07:30:41;;;;;;;8.52;3.40;;;17.20;99.90;;;;;;4586414;19;20022;-35
2022/06/15 07:32:13;;;;;;;7.32;3.67;;;17.20;99.90;;;;;;4589204;19;20345;-36
2022/06/15 07:33:50;;;;;;;7.45;3.42;;;17.20;99.90;;;;;;4589860;19;20010;-39
2022/06/15 07:35:24;;;;;;;7.70;3.28;;;17.20;99.90;;;;;;4589580;19;20007;-36
2022/06/15 07:36:55;;;;;;;4.57;3.10;;;17.20;99.90;;;;;;4589932;19;20015;-33
2022/06/15 07:38:26;;;;;;;4.63;2.67;;;17.20;99.90;;;;;;4589148;19;20022;-29
2022/06/15 07:39:58;;;;;;;6.80;2.80;;;17.20;99.90;;;;;;4590682;19;20006;-40
2022/06/15 07:41:29;;;;;;;4.75;2.75;;;17.20;99.90;;;;;;4590314;19;20014;-31
2022/06/15 07:43:00;;;;;;;6.65;3.20;;;17.20;99.90;;;;;;4590216;19;20358;-33
2022/06/15 07:44:31;;;;;;;5.63;2.45;;;17.30;99.90;;;;;;4589830;19;20018;-34
2022/06/15 07:46:03;;;;;;;4.70;2.40;;;17.30;99.90;;;;;;4588191;19;20015;-34
2022/06/15 07:49:55;;;;;;;6.80;3.00;;;17.40;99.90;;;;;;4586277;19;20014;-38
2022/06/15 07:51:38;;;;;;;5.72;2.63;;;17.30;99.90;;;;;;4587803;19;20054;-38
2022/06/15 07:53:11;;;;;;;6.53;2.85;;;17.30;99.90;;;;;;4587574;19;20011;-39
2022/06/15 07:54:42;;;;;;;5.43;2.38;;;17.30;99.90;;;;;;4586443;19;20382;-35
2022/06/15 07:56:13;;;;;;;7.45;2.97;;;17.20;99.90;;;;;;4586921;19;20019;-35
2022/06/15 07:57:45;;;;;;;8.48;2.53;;;17.20;99.90;;;;;;4587112;19;20039;-36
2022/06/15 07:59:16;;;;;;;7.30;2.70;;;17.20;99.90;;;;;;4588413;19;20031;-40
2022/06/15 08:00:48;;;;;;;6.97;2.78;;;17.10;99.90;;;;;;4587985;19;20042;-36
2022/06/15 08:02:19;;;;;;;7.63;3.10;;;17.20;99.90;;;;;;4588045;19;20511;-37
2022/06/15 08:03:51;;;;;;;5.47;3.33;;;17.20;99.90;;;;;;4588552;19;20014;-36
2022/06/15 08:05:22;;;;;;;6.63;2.60;;;17.20;99.90;;;;;;4588000;19;20006;-41
2022/06/15 08:06:53;;;;;;;5.53;2.80;;;17.20;99.90;;;;;;4587874;19;20010;-34
2022/06/15 08:08:24;;;;;;;6.45;2.60;;;17.20;99.90;;;;;;4587560;19;20022;-34
2022/06/15 08:09:56;;;;;;;;;;;17.20;99.90;;;;;;4587793;19;20469;-33
2022/06/15 08:11:27;;;;;;;5.28;2.40;;;17.20;99.90;;;;;;4586565;19;19919;-39
2022/06/15 08:12:58;;;;;;;5.78;2.60;;;17.20;99.90;;;;;;4586150;19;20567;-36
2022/06/15 08:14:29;;;;;;;6.07;2.47;;;17.20;99.90;;;;;;4587921;19;20102;-35
2022/06/15 08:16:01;;;;;;;5.53;2.85;;;17.20;99.90;;;;;;4587826;19;20040;-38
2022/06/15 08:17:38;;;;;;;7.18;2.05;;;17.30;99.90;;;;;;4587516;19;20477;-34
2022/06/15 08:19:09;;;;;;;8.18;2.75;;;17.50;99.90;;;;;;4588249;19;20594;-38
2022/06/15 08:20:46;;;;;;;3.85;1.98;;;17.40;99.90;;;;;;4588198;19;20011;-33
2022/06/15 08:22:19;;;;;;;3.65;1.90;;;17.40;99.90;;;;;;4587579;19;20371;-32
2022/06/15 08:23:51;;;;;;;5.63;1.88;;;17.30;99.90;;;;;;4586516;19;20507;-33
2022/06/15 08:25:27;;;;;;;4.22;1.63;;;17.30;99.90;;;;;;4586329;19;20007;-40
2022/06/15 08:26:58;;;;;;;;;;;17.50;99.90;;;;;;4588835;19;20018;-40
2022/06/15 08:28:33;;;;;;;;;;;17.70;99.90;;;;;;4587086;19;19931;-33
2022/06/15 08:30:08;;;;;;;3.60;1.40;;;17.60;99.90;;;;;;4588192;19;20332;-33
2022/06/15 08:31:39;;;;;;;7.05;1.90;;;17.50;99.90;;;;;;4586677;19;20006;-37
2022/06/15 08:33:10;;;;;;;5.05;1.50;;;17.40;99.90;;;;;;4589858;19;20014;-34
2022/06/15 08:34:41;;;;;;;4.45;1.83;;;17.40;99.90;;;;;;4589069;19;20022;-34
2022/06/15 08:36:13;;;;;;;4.55;1.90;;;17.40;99.90;;;;;;4589552;19;20014;-31
2022/06/15 08:37:44;;;;;;;7.50;2.35;;;17.60;99.90;;;;;;4588166;19;20394;-39
2022/06/15 08:39:15;;;;;;;4.95;2.33;;;17.50;99.90;;;;;;4587759;19;20034;-36
2022/06/15 08:40:58;;;;;;;6.55;2.00;;;17.50;99.90;;;;;;4588140;19;20006;-41
2022/06/15 08:42:51;;;;;;;2.92;1.50;;;17.40;99.90;;;;;;4588399;19;20019;-36
2022/06/15 08:44:44;;;;;;;5.97;2.22;;;17.40;99.90;;;;;;4587447;19;20022;-37
2022/06/15 08:46:32;;;;;;;7.20;2.10;;;17.40;99.90;;;;;;4587873;19;20444;-38
2022/06/15 08:48:06;;;;;;;3.40;1.65;;;17.40;99.90;;;;;;4589241;19;20010;-34